Time;durP1;ratioP1;P1;durP2;ratioP2;P2;SDS_P1;SDS_P2;PMS_P1;PMS_P2;Temp;Humidity;BMP_temperature;BMP_pressure;BME280_temperature;BME280_humidity;BME280_pressure;Samples;Min_cycle;Max_cycle;Signal;HPM_P1;HPM_P2
2023/02/23 00:02:06;;;;;;;10.77;4.93;;;0.10;99.90;;;;;;5032360;28;20575;-78
2023/02/23 00:04:37;;;;;;;9.03;4.50;;;0.10;99.90;;;;;;5036695;28;20268;-79
2023/02/23 00:07:05;;;;;;;6.90;4.20;;;0.00;99.90;;;;;;5038232;28;20206;-75
2023/02/23 00:09:34;;;;;;;8.17;4.63;;;0.10;99.90;;;;;;5027131;28;20258;-78
2023/02/23 00:12:06;;;;;;;6.50;4.40;;;0.20;99.90;;;;;;5027157;28;20190;-78
2023/02/23 00:14:38;;;;;;;7.57;4.30;;;0.20;99.90;;;;;;5028029;28;20301;-78
2023/02/23 00:17:13;;;;;;;7.23;4.50;;;0.10;99.90;;;;;;5013600;28;20701;-81
2023/02/23 00:19:44;;;;;;;8.00;4.27;;;0.20;99.90;;;;;;5014060;28;20230;-80
2023/02/23 00:22:11;;;;;;;8.73;4.60;;;0.30;99.90;;;;;;5013362;28;20287;-79
2023/02/23 00:24:41;;;;;;;7.90;4.60;;;0.10;99.90;;;;;;5019130;28;20812;-80
2023/02/23 00:27:08;;;;;;;7.13;4.43;;;0.20;99.90;;;;;;5026695;28;20195;-78
2023/02/23 00:29:38;;;;;;;8.83;4.53;;;0.20;99.90;;;;;;5022161;28;20226;-79
2023/02/23 00:32:06;;;;;;;7.67;4.17;;;0.20;99.90;;;;;;5030833;28;20198;-79
2023/02/23 00:34:34;;;;;;;7.13;4.37;;;0.10;99.90;;;;;;5029138;28;20191;-79
2023/02/23 00:37:01;;;;;;;7.27;4.40;;;0.20;99.90;;;;;;5025944;28;20198;-78
2023/02/23 00:39:29;;;;;;;7.43;4.07;;;0.20;99.90;;;;;;5023387;28;20211;-78
2023/02/23 00:42:01;;;;;;;6.80;4.13;;;0.20;99.90;;;;;;5030302;28;20187;-79
2023/02/23 00:44:29;;;;;;;8.30;4.27;;;0.20;99.90;;;;;;4973212;28;20212;-79
2023/02/23 00:46:59;;;;;;;7.03;4.33;;;0.20;99.90;;;;;;4974834;28;20197;-78
2023/02/23 00:49:27;;;;;;;8.50;4.80;;;0.20;99.90;;;;;;4991176;28;20291;-80
2023/02/23 00:51:54;;;;;;;6.40;4.33;;;0.10;99.90;;;;;;4990143;28;20306;-78
2023/02/23 00:54:21;;;;;;;7.47;4.23;;;0.10;99.90;;;;;;4984327;28;20208;-77
2023/02/23 00:56:49;;;;;;;7.40;4.40;;;0.10;99.90;;;;;;4990039;28;20264;-77
2023/02/23 00:59:22;;;;;;;8.30;4.23;;;0.10;99.90;;;;;;4990965;28;20297;-79
2023/02/23 01:01:49;;;;;;;7.50;4.43;;;0.10;99.90;;;;;;4981397;28;20547;-75
2023/02/23 01:04:24;;;;;;;7.63;4.40;;;0.10;99.90;;;;;;5030453;28;20195;-78
2023/02/23 01:06:51;;;;;;;7.93;4.70;;;0.10;99.90;;;;;;5032236;28;20273;-80
2023/02/23 01:09:26;;;;;;;7.37;4.23;;;-0.10;99.90;;;;;;5031975;28;20231;-82
2023/02/23 01:11:55;;;;;;;9.77;4.93;;;-0.20;99.90;;;;;;5032168;28;20211;-77
2023/02/23 01:14:23;;;;;;;8.37;4.50;;;-0.20;99.90;;;;;;5031535;28;20210;-78
2023/02/23 01:16:50;;;;;;;10.00;5.10;;;-0.20;99.90;;;;;;5031859;28;20290;-78
2023/02/23 01:19:18;;;;;;;9.43;4.90;;;-0.20;99.90;;;;;;5031798;28;20218;-77
2023/02/23 01:21:45;;;;;;;8.60;4.70;;;-0.40;99.90;;;;;;5021683;28;20211;-76
2023/02/23 01:24:14;;;;;;;8.77;5.00;;;-0.40;99.90;;;;;;5017789;28;20206;-78
2023/02/23 01:26:44;;;;;;;8.70;4.33;;;-0.40;99.90;;;;;;5018348;28;20642;-78
2023/02/23 01:29:14;;;;;;;9.13;5.20;;;-0.50;99.90;;;;;;5019284;28;20529;-79
2023/02/23 01:31:46;;;;;;;8.67;5.03;;;-0.50;99.90;;;;;;5019142;28;20199;-78
2023/02/23 01:34:14;;;;;;;7.17;4.50;;;-0.50;99.90;;;;;;5018789;28;20305;-80
2023/02/23 01:36:42;;;;;;;9.27;4.73;;;-0.50;99.90;;;;;;5015535;28;20207;-81
2023/02/23 01:39:12;;;;;;;10.70;5.17;;;-0.50;99.90;;;;;;5027135;28;20709;-80
2023/02/23 01:41:41;;;;;;;8.23;4.97;;;-0.60;99.90;;;;;;5023475;28;20237;-79
2023/02/23 01:44:14;;;;;;;9.27;5.07;;;-0.60;99.90;;;;;;5015734;28;20656;-80
2023/02/23 01:46:44;;;;;;;8.57;4.80;;;-0.60;99.90;;;;;;5027957;28;20205;-83
2023/02/23 01:49:18;;;;;;;10.63;5.27;;;-0.70;99.90;;;;;;5028056;28;20297;-80
2023/02/23 01:51:50;;;;;;;9.63;5.00;;;-0.60;99.90;;;;;;5029520;28;20193;-80
2023/02/23 01:54:50;;;;;;;8.37;4.80;;;-0.60;99.90;;;;;;5026991;28;20191;-79
2023/02/23 01:57:20;;;;;;;9.40;5.00;;;-0.60;99.90;;;;;;5024264;28;20304;-78
2023/02/23 01:59:49;;;;;;;9.20;5.00;;;-0.70;99.90;;;;;;5029410;28;20214;-79
2023/02/23 02:02:19;;;;;;;10.17;5.03;;;-0.60;99.90;;;;;;5028943;28;20661;-77
2023/02/23 02:04:50;;;;;;;9.70;5.37;;;-0.60;99.90;;;;;;5025456;28;20273;-77
2023/02/23 02:07:23;;;;;;;10.40;5.10;;;-0.50;99.90;;;;;;5026566;28;20286;-78
2023/02/23 02:12:44;;;;;;;9.53;5.10;;;-0.50;99.90;;;;;;5029775;28;20202;-80
2023/02/23 02:15:18;;;;;;;8.80;5.10;;;-0.60;99.90;;;;;;5024159;28;20201;-78
2023/02/23 02:17:55;;;;;;;11.30;5.60;;;-0.60;99.90;;;;;;5027391;28;20229;-78
2023/02/23 02:20:41;;;;;;;9.73;5.20;;;-0.70;99.90;;;;;;5028108;28;20302;-79
2023/02/23 02:23:17;;;;;;;10.93;5.53;;;-0.70;99.90;;;;;;5030830;28;20190;-79
2023/02/23 02:25:56;;;;;;;9.60;5.20;;;-0.70;99.90;;;;;;5011941;28;20209;-79
2023/02/23 02:28:41;;;;;;;10.37;5.47;;;-0.70;99.90;;;;;;5027532;28;20210;-78
2023/02/23 02:31:39;;;;;;;10.67;5.70;;;-0.70;99.90;;;;;;5022652;28;20206;-79
2023/02/23 02:34:38;;;;;;;10.27;5.50;;;-0.70;99.90;;;;;;5031041;28;20252;-76
2023/02/23 02:37:23;;;;;;;10.63;5.37;;;-0.60;99.90;;;;;;5027798;28;20207;-76
2023/02/23 02:40:16;;;;;;;9.53;5.70;;;-0.50;99.90;;;;;;5011902;28;20233;-76
2023/02/23 02:43:10;;;;;;;10.97;5.60;;;-0.50;99.90;;;;;;5013138;28;20198;-79
2023/02/23 02:45:40;;;;;;;9.83;5.30;;;-0.50;99.90;;;;;;5013523;28;20203;-78
2023/02/23 02:48:19;;;;;;;10.40;5.60;;;-0.50;99.90;;;;;;5031762;28;20188;-77
2023/02/23 02:50:59;;;;;;;9.80;5.67;;;-0.40;99.90;;;;;;5028211;28;20652;-78
2023/02/23 02:53:35;;;;;;;11.53;5.50;;;-0.50;99.90;;;;;;5033527;28;20197;-77
2023/02/23 02:56:05;;;;;;;10.60;5.60;;;-0.50;99.90;;;;;;5051555;28;20228;-77
2023/02/23 02:58:32;;;;;;;11.20;6.10;;;-0.50;99.90;;;;;;5052201;28;20210;-78
2023/02/23 04:19:28;;;;;;;11.07;5.90;;;0.40;99.90;;;;;;5039609;28;20200;-79
2023/02/23 04:21:54;;;;;;;12.90;5.90;;;0.50;99.90;;;;;;5033600;28;20537;-79
2023/02/23 04:24:22;;;;;;;9.23;4.83;;;0.40;99.90;;;;;;5032897;28;20208;-78
2023/02/23 04:26:49;;;;;;;10.63;5.90;;;0.40;99.90;;;;;;5030181;28;20214;-78
2023/02/23 04:29:15;;;;;;;10.23;6.00;;;0.40;99.90;;;;;;5031645;28;20310;-79
2023/02/23 04:31:44;;;;;;;9.07;5.23;;;0.30;99.90;;;;;;5031044;28;20302;-79
2023/02/23 04:34:13;;;;;;;10.47;5.43;;;0.40;99.90;;;;;;5036997;28;20199;-78
2023/02/23 04:36:39;;;;;;;11.40;5.33;;;0.40;99.90;;;;;;5038360;28;20208;-78
2023/02/23 04:39:06;;;;;;;10.23;4.80;;;0.50;99.90;;;;;;5034641;28;20193;-79
2023/02/23 04:41:34;;;;;;;10.00;5.20;;;0.50;99.90;;;;;;5032920;28;20229;-78
2023/02/23 04:44:01;;;;;;;9.17;4.80;;;0.50;99.90;;;;;;5032630;28;20208;-79
2023/02/23 04:46:29;;;;;;;11.00;5.47;;;0.50;99.90;;;;;;5024034;28;20201;-78
2023/02/23 04:48:56;;;;;;;13.90;5.33;;;0.40;99.90;;;;;;5028170;28;20281;-79
2023/02/23 04:51:22;;;;;;;9.73;5.53;;;0.40;99.90;;;;;;5022685;28;20306;-78
2023/02/23 04:53:50;;;;;;;9.23;4.97;;;0.40;99.90;;;;;;5030440;28;20214;-77
2023/02/23 04:56:17;;;;;;;9.90;5.03;;;0.40;99.90;;;;;;5034521;28;20217;-78
2023/02/23 04:58:43;;;;;;;10.33;5.30;;;0.40;99.90;;;;;;5052168;28;20664;-80
2023/02/23 05:01:10;;;;;;;11.47;5.80;;;0.40;99.90;;;;;;5052635;28;20210;-78
2023/02/23 05:03:37;;;;;;;9.87;5.27;;;0.30;99.90;;;;;;5052572;28;20229;-78
2023/02/23 05:06:05;;;;;;;13.53;5.60;;;0.30;99.90;;;;;;5052120;28;20956;-79
2023/02/23 05:08:31;;;;;;;9.90;5.23;;;0.20;99.90;;;;;;5051874;28;20634;-79
2023/02/23 05:10:58;;;;;;;11.33;5.33;;;0.20;99.90;;;;;;5033406;28;20244;-79
2023/02/23 05:13:25;;;;;;;9.57;5.20;;;0.30;99.90;;;;;;5012433;28;20290;-79
2023/02/23 05:15:56;;;;;;;11.40;5.30;;;0.40;99.90;;;;;;5019887;28;20199;-79
2023/02/23 05:18:25;;;;;;;10.90;5.50;;;0.40;99.90;;;;;;5032097;28;20603;-79
2023/02/23 05:20:52;;;;;;;10.17;5.40;;;0.20;99.90;;;;;;5031103;28;20260;-79
2023/02/23 05:23:20;;;;;;;10.30;5.70;;;0.30;99.90;;;;;;5019994;28;20198;-79
2023/02/23 05:25:47;;;;;;;8.43;5.00;;;0.30;99.90;;;;;;5030901;28;20195;-79
2023/02/23 05:28:14;;;;;;;8.77;5.30;;;0.30;99.90;;;;;;5031897;28;20199;-80
2023/02/23 05:30:41;;;;;;;7.93;5.03;;;0.40;99.90;;;;;;5031723;28;20195;-79
2023/02/23 05:33:08;;;;;;;8.87;5.30;;;0.40;99.90;;;;;;5015081;28;20238;-80
2023/02/23 05:35:40;;;;;;;9.27;5.03;;;0.30;99.90;;;;;;5031605;28;20675;-80
2023/02/23 05:38:07;;;;;;;10.57;5.40;;;0.30;99.90;;;;;;5033088;28;20643;-79
2023/02/23 05:40:34;;;;;;;10.20;5.40;;;0.30;99.90;;;;;;5031397;28;20647;-79
2023/02/23 05:43:02;;;;;;;8.33;5.30;;;0.40;99.90;;;;;;5031811;28;20197;-83
2023/02/23 05:45:28;;;;;;;13.67;5.40;;;0.40;99.90;;;;;;5032006;28;20202;-83
2023/02/23 05:47:55;;;;;;;8.80;5.30;;;0.30;99.90;;;;;;5033464;28;20205;-83
2023/02/23 05:50:22;;;;;;;12.00;5.70;;;0.40;99.90;;;;;;5032222;28;20195;-82
2023/02/23 05:52:49;;;;;;;9.00;4.97;;;0.40;99.90;;;;;;5031973;28;20184;-79
2023/02/23 05:55:16;;;;;;;10.63;4.93;;;0.30;99.90;;;;;;5032497;28;20195;-79
2023/02/23 05:57:44;;;;;;;9.10;5.00;;;0.40;99.90;;;;;;5031810;28;20557;-78
2023/02/23 06:00:12;;;;;;;9.80;4.97;;;0.40;99.90;;;;;;5032600;28;20246;-84
2023/02/23 06:02:42;;;;;;;9.57;5.00;;;0.30;99.90;;;;;;4960748;28;20203;-79
2023/02/23 06:05:12;;;;;;;9.33;5.00;;;0.30;99.90;;;;;;4991614;28;20228;-78
2023/02/23 06:07:39;;;;;;;8.40;4.67;;;0.40;99.90;;;;;;4991556;28;20672;-78
2023/02/23 06:10:07;;;;;;;8.60;4.57;;;0.30;99.90;;;;;;4974280;28;20251;-81
2023/02/23 06:12:33;;;;;;;7.13;4.10;;;0.30;99.90;;;;;;4991126;28;20215;-80
2023/02/23 06:15:00;;;;;;;7.60;4.53;;;0.40;99.90;;;;;;4981377;28;20222;-78
2023/02/23 06:17:27;;;;;;;8.83;4.40;;;0.40;99.90;;;;;;4994148;28;20235;-79
2023/02/23 06:19:55;;;;;;;8.20;4.20;;;0.50;99.90;;;;;;5012982;28;20309;-79
2023/02/23 06:22:22;;;;;;;9.10;4.70;;;0.50;99.90;;;;;;5051570;28;20209;-81
2023/02/23 06:24:49;;;;;;;8.43;4.60;;;0.50;99.90;;;;;;5051039;28;20195;-79
2023/02/23 06:27:16;;;;;;;10.57;4.67;;;0.50;99.90;;;;;;5045042;28;20656;-78
2023/02/23 06:29:43;;;;;;;9.93;4.63;;;0.50;99.90;;;;;;5044338;28;20206;-77
2023/02/23 06:32:11;;;;;;;8.30;4.27;;;0.40;99.90;;;;;;5036060;28;20245;-79
2023/02/23 06:34:39;;;;;;;9.43;4.30;;;0.40;99.90;;;;;;5052453;28;20175;-79
2023/02/23 06:37:08;;;;;;;10.07;4.63;;;0.40;99.90;;;;;;5034928;28;20659;-76
2023/02/23 06:39:35;;;;;;;10.87;4.67;;;0.40;99.90;;;;;;5031294;28;20208;-75
2023/02/23 06:42:02;;;;;;;10.90;4.93;;;0.40;99.90;;;;;;5031215;28;20223;-77
2023/02/23 06:44:29;;;;;;;10.00;4.87;;;0.40;99.90;;;;;;5037306;28;20194;-75
2023/02/23 06:46:56;;;;;;;9.10;4.97;;;0.50;99.90;;;;;;5056085;28;20201;-74
2023/02/23 06:49:23;;;;;;;9.60;4.40;;;0.50;99.90;;;;;;5054935;28;20194;-75
2023/02/23 06:51:50;;;;;;;10.03;5.10;;;0.50;99.90;;;;;;5054807;28;20202;-75
2023/02/23 06:54:17;;;;;;;10.27;4.70;;;0.60;99.90;;;;;;5055854;28;20256;-74
2023/02/23 06:56:44;;;;;;;10.73;4.90;;;0.70;99.90;;;;;;5054483;28;20205;-75
2023/02/23 06:59:11;;;;;;;9.97;5.30;;;0.70;99.90;;;;;;5056179;28;20231;-76
2023/02/23 07:01:38;;;;;;;8.80;4.63;;;0.60;99.90;;;;;;5054465;28;20224;-75
2023/02/23 07:04:05;;;;;;;10.33;5.10;;;0.70;99.90;;;;;;5054540;28;20185;-75
2023/02/23 07:06:32;;;;;;;9.90;5.00;;;0.70;99.90;;;;;;5054363;28;20199;-77
2023/02/23 07:08:59;;;;;;;10.03;5.10;;;0.70;99.90;;;;;;5054006;28;20206;-76
2023/02/23 07:11:26;;;;;;;11.33;5.07;;;0.70;99.90;;;;;;5055605;28;20182;-78
2023/02/23 07:13:52;;;;;;;11.13;5.30;;;0.80;99.90;;;;;;5055502;28;20194;-76
2023/02/23 07:16:19;;;;;;;10.63;5.03;;;0.70;99.90;;;;;;5053822;28;20218;-74
2023/02/23 07:18:46;;;;;;;11.40;5.40;;;0.70;99.90;;;;;;5047133;28;20198;-76
2023/02/23 07:21:13;;;;;;;11.63;5.73;;;0.80;99.90;;;;;;5033194;28;20219;-76
2023/02/23 07:23:40;;;;;;;11.80;5.13;;;0.80;99.90;;;;;;5036462;28;20664;-77
2023/02/23 07:26:08;;;;;;;9.67;5.33;;;0.90;99.90;;;;;;5037589;28;20677;-77
2023/02/23 07:28:35;;;;;;;9.47;4.73;;;1.00;99.90;;;;;;5053320;28;20194;-77
2023/02/23 07:31:02;;;;;;;10.03;5.30;;;1.00;99.90;;;;;;5053751;28;20587;-76
2023/02/23 07:33:31;;;;;;;9.80;5.13;;;1.10;99.90;;;;;;5053194;28;20195;-75
2023/02/23 07:35:58;;;;;;;13.00;5.40;;;1.10;99.90;;;;;;5034311;28;20608;-77
2023/02/23 07:38:27;;;;;;;9.97;5.00;;;1.10;99.90;;;;;;5033548;28;20661;-75
2023/02/23 07:40:54;;;;;;;8.57;5.20;;;1.10;99.90;;;;;;5033818;28;20227;-78
2023/02/23 07:43:21;;;;;;;10.10;5.30;;;1.10;99.90;;;;;;5043210;28;20214;-77
2023/02/23 07:45:49;;;;;;;10.33;5.40;;;1.30;99.90;;;;;;5037994;28;20193;-76
2023/02/23 07:48:17;;;;;;;9.80;5.33;;;1.30;99.90;;;;;;5050484;28;20237;-76
2023/02/23 07:50:44;;;;;;;8.33;4.93;;;1.40;99.90;;;;;;5034114;28;20219;-78
2023/02/23 07:53:11;;;;;;;8.27;4.87;;;1.40;99.90;;;;;;5033920;28;20207;-79
2023/02/23 07:55:39;;;;;;;10.93;5.50;;;1.30;99.90;;;;;;5047270;28;20195;-76
2023/02/23 07:58:07;;;;;;;10.13;5.27;;;1.40;99.90;;;;;;5054912;28;20190;-76
2023/02/23 08:00:37;;;;;;;13.63;5.53;;;1.60;99.90;;;;;;5053530;28;20586;-75
2023/02/23 08:03:04;;;;;;;10.33;5.13;;;1.80;99.90;;;;;;5053481;28;20645;-76
2023/02/23 08:05:32;;;;;;;10.10;4.83;;;1.90;99.90;;;;;;5036822;28;20683;-76
2023/02/23 08:08:00;;;;;;;9.13;4.83;;;1.90;99.90;;;;;;5055108;28;20219;-80
2023/02/23 08:10:27;;;;;;;8.67;5.30;;;1.90;99.90;;;;;;5055975;28;20227;-82
2023/02/23 08:12:56;;;;;;;11.23;5.53;;;2.00;99.90;;;;;;5054244;28;20202;-77
2023/02/23 08:15:23;;;;;;;10.40;5.10;;;1.90;99.90;;;;;;5054840;28;20199;-78
2023/02/23 08:17:53;;;;;;;10.27;5.30;;;2.00;99.90;;;;;;5036046;28;20325;-77
2023/02/23 08:20:20;;;;;;;11.80;5.60;;;2.40;99.90;;;;;;5032931;28;20230;-77
2023/02/23 08:22:51;;;;;;;8.97;4.97;;;2.90;99.90;;;;;;5034387;28;20219;-77
2023/02/23 08:25:18;;;;;;;10.27;5.23;;;3.40;99.90;;;;;;5032875;28;20193;-76
2023/02/23 08:27:45;;;;;;;10.70;4.70;;;3.70;99.90;;;;;;5034362;28;20200;-77
2023/02/23 08:30:14;;;;;;;9.47;4.87;;;3.90;99.90;;;;;;5015770;28;20203;-76
2023/02/23 08:32:41;;;;;;;9.00;4.97;;;4.00;99.90;;;;;;5023646;28;20199;-75
2023/02/23 08:35:09;;;;;;;11.53;5.53;;;3.90;99.90;;;;;;5018636;28;20208;-76
2023/02/23 08:37:36;;;;;;;11.57;5.30;;;4.00;99.90;;;;;;5014367;28;20196;-76
2023/02/23 08:40:03;;;;;;;8.90;5.13;;;3.80;99.90;;;;;;5013979;28;20191;-76
2023/02/23 08:42:30;;;;;;;9.33;5.40;;;3.60;99.90;;;;;;5026518;28;20269;-76
2023/02/23 08:45:00;;;;;;;10.97;5.73;;;3.30;99.90;;;;;;5024131;28;20190;-75
2023/02/23 08:47:27;;;;;;;9.87;5.40;;;3.20;99.90;;;;;;5027529;28;20200;-78
2023/02/23 08:49:57;;;;;;;9.60;5.53;;;3.10;99.90;;;;;;5033639;28;20219;-78
2023/02/23 08:52:24;;;;;;;12.23;5.60;;;3.00;99.90;;;;;;5032356;28;20224;-77
2023/02/23 08:54:52;;;;;;;10.33;5.30;;;3.20;99.90;;;;;;5032314;28;20322;-77
2023/02/23 08:57:23;;;;;;;11.47;5.70;;;3.30;99.90;;;;;;5028408;28;20637;-77
2023/02/23 08:59:51;;;;;;;13.67;5.90;;;3.50;99.90;;;;;;5028161;28;20192;-75
2023/02/23 09:02:18;;;;;;;8.80;5.30;;;4.00;99.90;;;;;;5029423;28;20649;-76
2023/02/23 09:04:44;;;;;;;10.80;5.87;;;4.40;99.90;;;;;;5025596;28;20193;-74
2023/02/23 09:07:16;;;;;;;13.80;5.67;;;4.60;99.90;;;;;;5020650;28;20199;-75
2023/02/23 09:09:55;;;;;;;10.17;5.33;;;4.60;99.90;;;;;;5029310;28;20231;-76
2023/02/23 09:12:25;;;;;;;11.17;6.27;;;4.60;99.90;;;;;;5028772;28;20191;-77
2023/02/23 09:14:52;;;;;;;9.60;5.97;;;4.90;99.90;;;;;;5030841;28;20196;-76
2023/02/23 09:17:21;;;;;;;11.47;5.77;;;5.30;99.90;;;;;;5026503;28;20217;-75
2023/02/23 09:19:49;;;;;;;9.80;5.43;;;5.40;99.90;;;;;;5028589;28;20544;-76
2023/02/23 09:22:17;;;;;;;12.67;6.10;;;5.50;99.90;;;;;;5030187;28;20248;-76
2023/02/23 09:24:44;;;;;;;9.93;5.43;;;5.80;99.90;;;;;;5029567;28;20192;-76
2023/02/23 09:27:11;;;;;;;9.00;5.47;;;5.70;99.90;;;;;;5024569;28;20261;-79
2023/02/23 09:29:43;;;;;;;10.23;5.80;;;5.80;99.90;;;;;;5018625;28;20189;-77
2023/02/23 09:34:41;;;;;;;13.10;5.60;;;6.30;99.90;;;;;;4984026;28;20276;-75
2023/02/23 09:37:08;;;;;;;9.20;5.23;;;6.70;99.90;;;;;;4979411;28;20192;-76
2023/02/23 09:39:35;;;;;;;11.77;5.80;;;7.00;99.90;;;;;;4990041;28;20200;-77
2023/02/23 09:42:23;;;;;;;10.97;5.60;;;7.10;99.90;;;;;;4981080;28;20227;-75
2023/02/23 09:44:59;;;;;;;12.23;5.77;;;6.90;99.90;;;;;;4972957;28;20200;-75
2023/02/23 09:47:50;;;;;;;12.50;6.30;;;7.00;99.90;;;;;;4988074;28;20676;-74
2023/02/23 09:50:24;;;;;;;12.63;6.00;;;6.90;99.90;;;;;;4974221;28;20204;-75
2023/02/23 09:53:17;;;;;;;10.87;6.23;;;6.70;99.90;;;;;;4990267;28;20197;-76
2023/02/23 09:55:46;;;;;;;10.70;5.73;;;6.80;99.90;;;;;;4954702;28;20208;-77
2023/02/23 09:58:25;;;;;;;10.87;6.10;;;6.90;99.90;;;;;;4975457;28;20215;-77
2023/02/23 10:01:11;;;;;;;15.53;5.90;;;7.00;99.90;;;;;;4982597;28;20204;-77
2023/02/23 10:03:41;;;;;;;12.97;5.83;;;7.20;99.90;;;;;;4983072;28;20216;-77
2023/02/23 10:06:12;;;;;;;9.67;5.80;;;6.80;99.90;;;;;;4995058;28;20196;-77
2023/02/23 10:09:01;;;;;;;11.33;5.60;;;7.20;99.90;;;;;;5012816;28;20664;-77
2023/02/23 10:11:57;;;;;;;9.83;6.00;;;7.50;99.90;;;;;;4994898;28;20292;-77
2023/02/23 10:14:49;;;;;;;11.07;6.00;;;7.20;99.90;;;;;;4994816;28;20216;-76
2023/02/23 10:17:28;;;;;;;11.93;5.80;;;7.00;99.90;;;;;;5012447;28;20215;-76
2023/02/23 10:20:17;;;;;;;11.00;6.00;;;7.30;99.90;;;;;;4994352;28;20204;-76
2023/02/23 10:22:46;;;;;;;11.10;6.23;;;7.50;99.90;;;;;;4995084;28;20255;-77
2023/02/23 10:25:21;;;;;;;10.43;6.30;;;7.60;99.90;;;;;;4991491;28;20223;-77
2023/02/23 10:27:50;;;;;;;10.83;6.37;;;7.60;99.90;;;;;;4975741;28;20192;-78
2023/02/23 10:30:29;;;;;;;9.20;5.60;;;7.60;99.90;;;;;;4991680;28;20219;-78
2023/02/23 10:33:23;;;;;;;11.60;6.50;;;7.90;99.90;;;;;;4992559;28;20242;-78
2023/02/23 10:35:55;;;;;;;11.73;6.03;;;8.40;99.90;;;;;;4991438;28;20216;-77
2023/02/23 10:38:37;;;;;;;10.53;6.00;;;8.30;99.90;;;;;;4991865;28;20235;-77
2023/02/23 10:41:05;;;;;;;12.13;5.97;;;8.20;99.90;;;;;;4991316;28;20204;-76
2023/02/23 10:43:32;;;;;;;10.00;6.00;;;8.40;99.90;;;;;;4992731;28;20230;-78
2023/02/23 10:45:59;;;;;;;12.63;6.57;;;8.60;99.90;;;;;;4991297;28;20216;-78
2023/02/23 10:48:32;;;;;;;9.03;5.87;;;8.50;99.90;;;;;;4992641;28;20658;-78
2023/02/23 10:51:04;;;;;;;11.13;6.07;;;8.60;99.90;;;;;;4991619;28;20262;-78
2023/02/23 10:53:35;;;;;;;12.57;6.20;;;8.80;99.90;;;;;;4991589;28;20228;-78
2023/02/23 10:56:13;;;;;;;11.57;6.60;;;9.00;99.90;;;;;;4991185;28;20208;-78
2023/02/23 10:58:45;;;;;;;11.17;6.50;;;9.30;99.90;;;;;;4991442;28;20569;-78
2023/02/23 11:01:14;;;;;;;11.03;6.63;;;9.80;99.90;;;;;;4992411;28;20224;-77
2023/02/23 11:03:51;;;;;;;11.93;6.57;;;10.00;99.90;;;;;;4991301;28;20212;-76
2023/02/23 11:06:41;;;;;;;11.43;6.40;;;9.80;99.90;;;;;;4973097;28;20674;-76
2023/02/23 11:09:24;;;;;;;10.33;6.20;;;10.20;99.90;;;;;;4956112;28;20269;-76
2023/02/23 11:12:24;;;;;;;9.83;6.20;;;10.60;99.90;;;;;;4955893;28;20205;-77
2023/02/23 11:14:57;;;;;;;10.17;6.07;;;10.50;99.90;;;;;;4955805;28;20216;-76
2023/02/23 11:17:36;;;;;;;11.83;6.60;;;10.30;99.90;;;;;;4955534;28;20246;-76
2023/02/23 11:20:25;;;;;;;11.10;6.10;;;10.60;99.90;;;;;;4973100;28;20208;-76
2023/02/23 11:22:52;;;;;;;10.37;6.07;;;10.70;99.90;;;;;;4972937;28;20689;-74
2023/02/23 11:25:28;;;;;;;11.73;6.27;;;10.50;99.90;;;;;;4955621;28;20202;-74
2023/02/23 11:27:57;;;;;;;10.30;6.10;;;10.10;99.90;;;;;;4956142;28;20194;-75
2023/02/23 11:30:36;;;;;;;10.80;5.87;;;10.20;99.90;;;;;;4956188;28;20201;-75
2023/02/23 11:33:16;;;;;;;11.17;6.13;;;10.40;99.90;;;;;;4967899;28;20352;-77
2023/02/23 11:35:43;;;;;;;9.67;6.13;;;10.50;99.90;;;;;;4996149;28;20276;-75
2023/02/23 11:38:31;;;;;;;8.27;5.77;;;9.80;99.90;;;;;;4992254;28;20213;-75
2023/02/23 11:41:20;;;;;;;12.03;6.00;;;9.50;99.90;;;;;;4994563;28;20287;-76
2023/02/23 11:43:55;;;;;;;10.93;5.90;;;9.40;99.90;;;;;;4994551;28;20236;-76
2023/02/23 11:46:23;;;;;;;10.60;5.60;;;9.70;99.90;;;;;;4994005;28;20200;-76
2023/02/23 11:49:02;;;;;;;9.67;5.63;;;9.80;99.90;;;;;;4994344;28;20651;-77
2023/02/23 11:51:32;;;;;;;10.53;6.13;;;9.90;99.90;;;;;;4995604;28;20224;-77
2023/02/23 11:54:00;;;;;;;11.37;6.10;;;10.00;99.90;;;;;;4995791;28;20655;-79
2023/02/23 11:56:29;;;;;;;10.00;5.47;;;9.80;99.90;;;;;;4995645;28;20532;-76
2023/02/23 11:59:01;;;;;;;9.77;5.33;;;9.70;99.90;;;;;;4994372;28;20262;-77
2023/02/23 12:01:44;;;;;;;7.90;5.30;;;9.60;99.90;;;;;;4994139;28;20223;-77
2023/02/23 12:04:24;;;;;;;9.70;5.70;;;9.80;99.90;;;;;;4993978;28;20208;-76
2023/02/23 12:07:11;;;;;;;10.97;5.83;;;9.50;99.90;;;;;;4993163;28;20192;-76
2023/02/23 12:09:39;;;;;;;10.87;5.77;;;9.50;99.90;;;;;;4997344;28;20210;-76
2023/02/23 12:12:11;;;;;;;10.83;5.20;;;9.40;99.90;;;;;;5004264;28;20197;-77
2023/02/23 12:14:40;;;;;;;11.17;5.60;;;9.60;99.90;;;;;;4993885;28;20208;-79
2023/02/23 12:17:22;;;;;;;8.73;4.87;;;9.70;99.90;;;;;;4993708;28;20632;-78
2023/02/23 12:20:28;;;;;;;9.60;5.53;;;9.50;99.90;;;;;;4993369;28;20610;-80
2023/02/23 12:23:07;;;;;;;9.47;5.43;;;9.30;99.90;;;;;;4967557;28;20232;-78
2023/02/23 12:25:49;;;;;;;9.57;4.93;;;8.80;99.90;;;;;;4965827;28;20201;-77
2023/02/23 12:28:34;;;;;;;10.27;5.13;;;9.10;99.90;;;;;;4996021;28;20295;-78
2023/02/23 12:31:16;;;;;;;7.87;5.00;;;9.50;99.90;;;;;;4994035;28;20193;-78
2023/02/23 12:33:52;;;;;;;10.23;5.10;;;9.70;99.90;;;;;;4996009;28;20225;-77
2023/02/23 12:36:54;;;;;;;8.67;4.80;;;9.60;99.90;;;;;;4979846;28;20211;-78
2023/02/23 12:39:32;;;;;;;8.13;5.10;;;9.60;99.90;;;;;;4978476;28;20204;-77
2023/02/23 12:42:23;;;;;;;11.90;5.40;;;9.20;99.90;;;;;;4989588;28;20222;-77
2023/02/23 12:45:02;;;;;;;10.40;5.40;;;9.50;99.90;;;;;;4983814;28;20221;-78
2023/02/23 12:47:34;;;;;;;9.77;5.07;;;9.20;99.90;;;;;;4957753;28;20229;-78
2023/02/23 12:50:12;;;;;;;11.40;5.00;;;9.30;99.90;;;;;;4958191;28;20193;-78
2023/02/23 12:53:05;;;;;;;8.33;4.70;;;9.20;99.90;;;;;;4983647;28;20251;-78
2023/02/23 12:55:44;;;;;;;10.40;5.27;;;8.90;99.90;;;;;;4992982;28;20204;-78
2023/02/23 12:58:28;;;;;;;9.27;5.10;;;8.80;99.90;;;;;;4957526;28;20198;-79
2023/02/23 13:01:30;;;;;;;9.97;4.97;;;8.30;99.90;;;;;;4974964;28;20558;-77
2023/02/23 13:04:19;;;;;;;8.90;5.40;;;8.20;99.90;;;;;;4961685;28;20218;-77
2023/02/23 13:07:23;;;;;;;9.23;4.83;;;7.90;99.90;;;;;;4974802;28;20201;-78
2023/02/23 13:10:01;;;;;;;9.70;5.67;;;7.50;99.90;;;;;;4896057;29;20241;-78
2023/02/23 13:12:56;;;;;;;13.53;5.47;;;7.40;99.90;;;;;;4880458;29;20276;-77
2023/02/23 13:15:41;;;;;;;7.93;5.00;;;7.50;99.90;;;;;;4897385;29;20227;-78
2023/02/23 13:18:35;;;;;;;10.27;5.43;;;7.70;99.90;;;;;;4916514;29;20752;-76
2023/02/23 13:21:33;;;;;;;9.40;5.40;;;8.00;99.90;;;;;;4898813;29;20213;-79
2023/02/23 13:24:12;;;;;;;11.40;5.97;;;7.90;99.90;;;;;;4898709;29;20628;-79
2023/02/23 13:27:00;;;;;;;9.33;4.90;;;7.80;99.90;;;;;;4888340;29;20231;-78
2023/02/23 13:29:51;;;;;;;9.97;5.10;;;7.80;99.90;;;;;;4897295;29;20196;-78
2023/02/23 13:32:22;;;;;;;9.50;5.23;;;7.60;99.90;;;;;;4910448;29;20207;-79
2023/02/23 13:35:03;;;;;;;10.97;5.50;;;7.40;99.90;;;;;;4912982;29;21819;-78
2023/02/23 13:37:47;;;;;;;10.57;5.43;;;7.30;99.90;;;;;;4899105;29;20319;-84
2023/02/23 13:40:22;;;;;;;10.27;5.43;;;7.10;99.90;;;;;;4898228;29;20285;-78
2023/02/23 13:43:27;;;;;;;10.20;5.50;;;7.00;99.90;;;;;;4912425;29;20219;-78
2023/02/23 13:46:08;;;;;;;9.77;5.27;;;7.20;99.90;;;;;;4968552;28;20216;-78
2023/02/23 13:48:46;;;;;;;10.50;5.17;;;7.20;99.90;;;;;;4989659;28;20203;-77
2023/02/23 13:51:44;;;;;;;9.63;5.37;;;7.30;99.90;;;;;;4989040;28;20248;-80
2023/02/23 13:54:15;;;;;;;10.23;4.87;;;7.40;99.90;;;;;;4987050;28;20207;-83
2023/02/23 13:57:20;;;;;;;10.17;5.17;;;7.40;99.90;;;;;;4990958;28;20211;-78
2023/02/23 13:59:49;;;;;;;10.73;5.60;;;7.20;99.90;;;;;;4979883;28;20196;-77
2023/02/23 14:02:40;;;;;;;11.00;5.70;;;7.10;99.90;;;;;;4974463;28;20649;-77
2023/02/23 14:05:26;;;;;;;9.37;4.90;;;7.20;99.90;;;;;;4970509;28;20247;-77
2023/02/23 14:08:07;;;;;;;10.90;5.67;;;7.00;99.90;;;;;;4990577;28;20210;-80
2023/02/23 14:10:44;;;;;;;9.57;5.27;;;7.10;99.90;;;;;;4990525;28;20195;-78
2023/02/23 14:13:18;;;;;;;11.43;5.73;;;7.10;99.90;;;;;;4973118;28;20236;-78
2023/02/23 14:15:52;;;;;;;10.50;6.07;;;6.80;99.90;;;;;;4970336;28;20208;-78
2023/02/23 14:18:25;;;;;;;10.20;5.30;;;6.70;99.90;;;;;;4968642;28;20232;-77
2023/02/23 14:21:11;;;;;;;10.57;5.23;;;6.60;99.90;;;;;;4984493;28;20207;-76
2023/02/23 14:23:49;;;;;;;10.27;5.20;;;6.50;99.90;;;;;;4970955;28;20234;-78
2023/02/23 14:26:28;;;;;;;8.50;5.40;;;6.40;99.90;;;;;;4971357;28;20562;-78
2023/02/23 14:29:18;;;;;;;10.53;5.77;;;6.60;99.90;;;;;;4987466;28;20731;-76
2023/02/23 14:32:23;;;;;;;9.37;5.87;;;6.80;99.90;;;;;;4989237;28;20198;-79
2023/02/23 14:34:59;;;;;;;11.13;5.50;;;6.80;99.90;;;;;;4972974;28;20660;-77
2023/02/23 14:37:38;;;;;;;10.23;5.67;;;6.80;99.90;;;;;;4969120;28;20190;-78
2023/02/23 14:40:11;;;;;;;9.33;5.50;;;6.70;99.90;;;;;;4972984;28;20199;-76
2023/02/23 14:42:39;;;;;;;11.70;5.47;;;6.90;99.90;;;;;;4988296;28;20636;-78
2023/02/23 14:45:27;;;;;;;11.40;6.40;;;7.10;99.90;;;;;;4988293;28;20207;-79
2023/02/23 14:48:04;;;;;;;11.20;5.97;;;7.00;99.90;;;;;;4995107;28;20669;-78